Time;durP1;ratioP1;P1;durP2;ratioP2;P2;SDS_P1;SDS_P2;PMS_P1;PMS_P2;Temp;Humidity;BMP_temperature;BMP_pressure;BME280_temperature;BME280_humidity;BME280_pressure;Samples;Min_cycle;Max_cycle;Signal;HPM_P1;HPM_P2
2023/01/07 00:01:52;;;;;;;6.25;2.92;;;;;;;14.20;67.33;101279.97;4995757;28;20054;-59
2023/01/07 00:04:20;;;;;;;5.80;2.70;;;;;;;14.57;67.15;101273.84;4997458;28;20042;-62
2023/01/07 00:06:48;;;;;;;6.03;2.38;;;;;;;14.68;66.79;101262.06;4996940;28;20062;-57
2023/01/07 00:09:15;;;;;;;14.27;2.53;;;;;;;14.59;66.29;101266.03;4995964;28;20058;-59
2023/01/07 00:11:43;;;;;;;6.90;2.85;;;;;;;14.50;65.47;101259.66;4996997;28;20051;-59
2023/01/07 00:14:12;;;;;;;4.97;2.25;;;;;;;14.31;64.13;101250.84;4997036;28;20061;-59
2023/01/07 00:16:40;;;;;;;6.10;2.60;;;;;;;14.21;67.28;101249.16;4996591;28;20237;-59
2023/01/07 00:19:11;;;;;;;4.13;2.03;;;;;;;14.24;66.43;101244.94;4997066;28;20046;-63
2023/01/07 00:21:38;;;;;;;5.78;2.13;;;;;;;14.54;67.01;101235.66;4979563;28;20050;-57
2023/01/07 00:24:06;;;;;;;7.40;2.30;;;;;;;14.44;65.34;101236.00;4997057;28;20130;-58
2023/01/07 00:26:34;;;;;;;6.78;2.22;;;;;;;14.57;67.00;101226.72;5010384;28;20062;-55
2023/01/07 00:29:03;;;;;;;3.53;1.73;;;;;;;14.68;66.26;101220.47;4995519;28;20080;-57
2023/01/07 00:31:33;;;;;;;4.47;2.40;;;;;;;14.76;65.84;101218.84;4994448;28;20058;-59
2023/01/07 00:36:29;;;;;;;5.03;2.72;;;;;;;14.49;65.81;101206.16;5011464;28;20058;-57
2023/01/07 00:39:09;;;;;;;5.65;2.03;;;;;;;14.56;65.33;101203.72;4996855;28;20050;-56
2023/01/07 00:41:36;;;;;;;5.40;2.17;;;;;;;14.59;64.49;101200.28;4962921;28;20085;-56
2023/01/07 00:44:05;;;;;;;4.88;2.60;;;;;;;14.83;65.26;101193.38;4979128;28;20313;-57
2023/01/07 00:46:32;;;;;;;7.60;2.30;;;;;;;14.79;64.46;101182.13;4996670;28;20058;-59
2023/01/07 00:49:00;;;;;;;5.40;2.00;;;;;;;14.68;64.92;101184.44;4995012;28;20050;-57
2023/01/07 00:51:28;;;;;;;5.88;2.13;;;;;;;14.60;65.56;101176.97;4978637;28;20058;-56
2023/01/07 00:53:55;;;;;;;7.35;2.58;;;;;;;14.71;65.19;101176.59;5011659;28;20062;-57
2023/01/07 00:56:22;;;;;;;8.23;2.20;;;;;;;14.81;64.65;101165.97;4995371;28;20054;-57
2023/01/07 00:58:50;;;;;;;5.63;2.10;;;;;;;14.79;63.47;101168.25;4996104;28;20510;-58
2023/01/07 01:01:17;;;;;;;7.28;2.08;;;;;;;14.61;63.75;101155.56;4994455;28;20509;-56
2023/01/07 01:03:45;;;;;;;4.15;2.20;;;;;;;14.48;64.12;101149.09;5011289;28;20062;-59
2023/01/07 01:06:15;;;;;;;6.20;2.22;;;;;;;14.77;65.08;101153.91;4995853;28;20413;-59
2023/01/07 01:08:44;;;;;;;6.15;2.20;;;;;;;14.82;64.57;101144.63;4978735;28;20050;-57
2023/01/07 01:11:13;;;;;;;6.13;1.92;;;;;;;14.57;64.23;101138.00;4995807;28;20038;-59
2023/01/07 01:13:41;;;;;;;7.05;2.22;;;;;;;14.57;63.62;101147.09;4978896;28;20050;-59
2023/01/07 01:16:11;;;;;;;4.82;1.98;;;;;;;13.94;66.08;101133.16;4995672;28;20050;-55
2023/01/07 01:18:39;;;;;;;9.00;2.30;;;;;;;14.44;65.60;101139.81;4994615;28;20057;-56
2023/01/07 01:21:11;;;;;;;4.85;2.00;;;;;;;14.63;64.99;101122.78;4978289;28;20062;-58
2023/01/07 01:23:39;;;;;;;4.55;1.77;;;;;;;14.69;65.54;101127.03;4994702;28;20383;-57
2023/01/07 01:26:09;;;;;;;4.25;1.80;;;;;;;14.62;63.08;101122.00;4993641;28;20057;-54
2023/01/07 01:28:36;;;;;;;5.25;2.20;;;;;;;14.82;64.16;101125.19;4978203;28;20051;-56
2023/01/07 01:31:06;;;;;;;5.82;2.13;;;;;;;14.77;63.82;101123.41;5010699;28;20057;-57
2023/01/07 01:33:48;;;;;;;5.80;1.80;;;;;;;14.67;65.01;101126.53;4996157;28;20046;-54
2023/01/07 01:36:16;;;;;;;4.15;1.80;;;;;;;14.85;63.83;101114.25;5010559;28;20498;-57
2023/01/07 01:38:43;;;;;;;4.88;2.20;;;;;;;14.97;63.42;101105.22;4996697;28;20069;-55
2023/01/07 01:41:15;;;;;;;4.55;1.95;;;;;;;14.81;64.39;101104.97;5014606;28;20053;-59
2023/01/07 01:43:44;;;;;;;4.90;2.05;;;;;;;14.67;62.87;101107.13;4998598;28;20054;-55
2023/01/07 01:46:44;;;;;;;3.45;1.80;;;;;;;14.61;63.42;101111.22;4998305;28;20050;-55
2023/01/07 01:49:21;;;;;;;5.20;1.70;;;;;;;14.07;63.63;101109.19;5014690;28;20042;-54
2023/01/07 01:51:56;;;;;;;5.05;1.60;;;;;;;14.43;65.23;101102.16;4966034;28;20058;-58
2023/01/07 01:54:24;;;;;;;3.20;1.80;;;;;;;14.37;64.17;101094.34;4998341;28;20062;-57
2023/01/07 01:56:54;;;;;;;;;;;;;;;14.40;63.28;101097.25;4998652;28;20050;-54
2023/01/07 01:59:24;;;;;;;4.60;1.88;;;;;;;14.34;62.95;101097.78;4998452;28;20413;-58
2023/01/07 02:01:54;;;;;;;4.40;1.70;;;;;;;13.65;63.01;101091.41;4997332;28;20046;-56
2023/01/07 02:04:23;;;;;;;4.43;1.90;;;;;;;13.79;64.09;101094.84;5014020;28;20054;-57
2023/01/07 02:06:59;;;;;;;5.40;1.70;;;;;;;13.98;66.21;101089.00;4997723;28;20414;-58
2023/01/07 02:09:28;;;;;;;6.38;1.90;;;;;;;14.39;66.36;101086.50;4998122;28;20061;-57
2023/01/07 02:12:06;;;;;;;4.15;1.88;;;;;;;14.38;65.43;101082.13;4965745;28;20046;-58
2023/01/07 02:15:00;;;;;;;6.32;2.75;;;;;;;14.42;64.50;101081.13;5014281;28;20054;-58
2023/01/07 02:17:53;;;;;;;8.02;2.40;;;;;;;14.49;64.51;101078.66;4997408;28;20054;-58
2023/01/07 02:20:40;;;;;;;5.45;1.83;;;;;;;14.57;63.71;101074.22;4998797;28;20046;-57
2023/01/07 02:23:29;;;;;;;4.88;2.05;;;;;;;14.32;64.26;101077.88;4999271;28;20051;-54
2023/01/07 02:26:31;;;;;;;4.90;2.05;;;;;;;14.18;65.64;101069.72;4996593;28;20081;-55
2023/01/07 02:29:21;;;;;;;4.10;1.90;;;;;;;14.68;64.78;101080.22;4997436;28;20042;-58
2023/01/07 02:32:06;;;;;;;5.60;2.05;;;;;;;14.15;63.78;101075.13;4976992;28;20051;-58
2023/01/07 02:34:39;;;;;;;3.80;1.73;;;;;;;14.15;64.68;101078.72;4959130;28;20086;-53
2023/01/07 02:37:33;;;;;;;5.15;2.10;;;;;;;14.15;65.23;101070.41;4997027;28;20054;-56
2023/01/07 02:40:25;;;;;;;5.78;2.53;;;;;;;13.77;64.91;101071.41;4960235;28;20636;-58
2023/01/07 02:43:05;;;;;;;4.65;1.83;;;;;;;13.39;65.99;101068.44;4962617;28;20054;-54
2023/01/07 02:45:51;;;;;;;6.10;1.95;;;;;;;13.31;65.80;101069.25;4964687;28;20058;-56
2023/01/07 02:48:20;;;;;;;3.53;1.60;;;;;;;13.63;67.34;101060.50;5012143;28;20157;-59
2023/01/07 02:50:48;;;;;;;4.18;1.63;;;;;;;13.80;67.60;101051.38;4963057;28;20502;-57
2023/01/07 02:53:16;;;;;;;2.70;1.40;;;;;;;13.50;67.66;101056.75;4978050;28;20055;-59
2023/01/07 02:56:35;;;;;;;4.80;1.50;;;;;;;13.36;66.48;101046.97;4966278;28;20050;-54
2023/01/07 02:59:21;;;;;;;3.50;1.60;;;;;;;13.71;68.13;101040.31;4921812;29;20056;-68
2023/01/07 03:01:58;;;;;;;4.32;1.55;;;;;;;13.94;67.17;101035.38;4937883;29;20608;-66
2023/01/07 03:04:44;;;;;;;3.83;1.50;;;;;;;13.95;65.82;101023.97;4962626;28;20055;-67
2023/01/07 03:07:44;;;;;;;2.97;1.38;;;;;;;13.88;66.49;101020.09;4998079;28;20073;-58
2023/01/07 03:10:25;;;;;;;3.38;1.45;;;;;;;14.00;65.10;101017.47;4987640;28;20054;-57
2023/01/07 03:13:04;;;;;;;4.10;1.80;;;;;;;13.89;67.28;101011.47;4942559;29;20059;-56
2023/01/07 03:15:36;;;;;;;5.18;1.60;;;;;;;14.02;65.75;101004.91;4964618;28;20054;-57
2023/01/07 03:18:21;;;;;;;4.28;1.60;;;;;;;14.27;66.12;101008.78;5013123;28;20038;-57
2023/01/07 03:20:52;;;;;;;3.65;1.45;;;;;;;14.23;65.87;101002.25;4980186;28;20046;-59
2023/01/07 03:23:22;;;;;;;4.18;1.50;;;;;;;13.83;64.86;101000.88;4980802;28;20497;-58
2023/01/07 03:25:51;;;;;;;6.25;1.98;;;;;;;13.89;65.82;100991.25;4999399;28;20058;-55
2023/01/07 03:28:22;;;;;;;2.42;1.40;;;;;;;14.17;66.22;100993.31;4973940;28;20051;-57
2023/01/07 03:30:50;;;;;;;7.03;1.60;;;;;;;13.99;66.23;100988.97;4941758;29;20388;-56
2023/01/07 03:33:26;;;;;;;3.70;1.45;;;;;;;14.06;64.03;100983.72;4974291;28;20062;-66
2023/01/07 03:35:55;;;;;;;4.90;1.40;;;;;;;14.17;65.36;100970.34;4973709;28;20051;-59
2023/01/07 03:38:24;;;;;;;4.03;1.30;;;;;;;13.82;62.42;100977.91;4957146;29;20068;-68
2023/01/07 03:40:51;;;;;;;3.60;1.65;;;;;;;13.94;64.19;100974.47;4973488;28;20547;-66
2023/01/07 03:43:21;;;;;;;4.45;1.40;;;;;;;14.02;64.22;100977.22;4973756;28;20055;-67
2023/01/07 03:45:49;;;;;;;3.28;1.35;;;;;;;13.48;64.48;100966.88;4957145;28;20051;-57
2023/01/07 03:48:17;;;;;;;2.90;1.70;;;;;;;13.02;64.24;100970.28;4973435;28;20054;-59
2023/01/07 03:50:44;;;;;;;5.40;1.55;;;;;;;13.57;66.50;100967.69;4957218;28;20043;-56
2023/01/07 03:53:11;;;;;;;3.47;1.48;;;;;;;13.48;64.25;100964.09;4958917;29;20059;-57
2023/01/07 03:55:43;;;;;;;4.28;1.20;;;;;;;13.67;64.67;100953.50;4958443;28;20047;-53
2023/01/07 03:58:11;;;;;;;1.80;0.95;;;;;;;14.03;64.56;100950.34;4956982;28;20055;-55
2023/01/07 04:00:38;;;;;;;2.60;1.05;;;;;;;14.02;62.55;100940.38;4959361;28;20047;-58
2023/01/07 04:03:14;;;;;;;3.58;1.50;;;;;;;13.83;63.09;100937.19;4977583;28;20152;-56
2023/01/07 04:05:45;;;;;;;3.53;1.30;;;;;;;13.88;62.99;100931.50;5007275;28;20065;-58
2023/01/07 04:08:12;;;;;;;1.65;1.00;;;;;;;13.91;64.44;100922.53;4976599;28;20054;-58
2023/01/07 04:10:41;;;;;;;2.55;1.20;;;;;;;13.72;62.78;100924.84;4992216;28;20070;-58
2023/01/07 04:13:10;;;;;;;2.78;1.27;;;;;;;12.90;64.00;100920.28;4976591;28;20057;-58
2023/01/07 04:15:40;;;;;;;2.90;1.30;;;;;;;12.82;62.98;100915.59;4991972;28;20051;-58
2023/01/07 04:18:08;;;;;;;4.38;1.23;;;;;;;13.45;66.54;100918.56;4992281;28;20054;-56
2023/01/07 04:20:35;;;;;;;1.85;1.15;;;;;;;13.55;63.23;100914.59;4976796;28;20061;-67
2023/01/07 04:23:03;;;;;;;1.80;1.00;;;;;;;13.74;64.21;100908.72;4992873;28;20059;-65
2023/01/07 04:25:31;;;;;;;2.72;1.00;;;;;;;13.36;64.38;100892.84;4986244;28;20064;-67
2023/01/07 04:28:02;;;;;;;2.40;1.35;;;;;;;13.52;62.86;100884.84;4995610;28;20057;-66
2023/01/07 04:30:29;;;;;;;3.33;1.27;;;;;;;13.57;61.84;100873.59;4995154;28;20061;-67
2023/01/07 04:32:56;;;;;;;4.45;1.38;;;;;;;13.53;62.33;100872.59;5011933;28;20058;-67
2023/01/07 04:35:24;;;;;;;3.53;1.30;;;;;;;13.51;64.85;100877.69;4996099;28;20058;-67
2023/01/07 04:37:51;;;;;;;5.70;1.40;;;;;;;13.58;65.34;100862.19;4996855;28;20046;-65
2023/01/07 04:40:18;;;;;;;2.28;1.23;;;;;;;13.73;64.03;100860.03;5011436;28;20046;-68
2023/01/07 04:42:46;;;;;;;3.75;1.30;;;;;;;13.88;64.75;100848.44;4995440;28;20046;-66
2023/01/07 04:45:14;;;;;;;5.82;1.50;;;;;;;13.12;65.63;100845.53;4994843;28;20042;-65
2023/01/07 04:47:41;;;;;;;3.35;1.27;;;;;;;12.81;66.24;100847.63;4995562;28;20063;-66
2023/01/07 04:50:09;;;;;;;2.65;1.23;;;;;;;12.61;65.70;100850.19;4995441;28;20399;-67
2023/01/07 04:52:36;;;;;;;3.80;1.30;;;;;;;12.33;66.80;100833.91;4996399;28;20492;-66
2023/01/07 04:55:05;;;;;;;4.35;1.30;;;;;;;12.79;68.62;100825.03;5011292;28;20050;-66
2023/01/07 04:57:32;;;;;;;3.25;1.30;;;;;;;12.73;65.86;100814.44;5011431;28;20395;-66
2023/01/07 05:00:00;;;;;;;3.80;1.50;;;;;;;12.73;67.87;100819.97;4994610;28;20047;-66
2023/01/07 05:02:27;;;;;;;3.38;1.20;;;;;;;12.73;67.53;100806.13;5011273;28;20410;-65
2023/01/07 05:04:54;;;;;;;4.63;1.42;;;;;;;12.63;65.53;100807.28;4994986;28;20391;-67
2023/01/07 05:07:22;;;;;;;4.18;1.75;;;;;;;13.08;68.38;100796.72;5010550;28;20046;-66
2023/01/07 05:09:50;;;;;;;4.53;1.60;;;;;;;12.90;66.84;100784.03;4994511;28;20061;-66
2023/01/07 05:12:18;;;;;;;3.45;1.80;;;;;;;12.83;66.88;100784.50;4994551;28;20069;-61
2023/01/07 05:14:46;;;;;;;5.20;1.85;;;;;;;12.35;67.33;100795.75;5009442;28;20428;-59
2023/01/07 05:17:14;;;;;;;4.03;2.20;;;;;;;12.04;68.69;100780.41;5010797;28;20047;-56
2023/01/07 05:19:42;;;;;;;6.43;2.53;;;;;;;11.82;70.19;100780.53;4996210;28;20056;-58
2023/01/07 05:22:11;;;;;;;5.60;2.50;;;;;;;11.53;70.40;100792.06;4994680;28;20073;-58
2023/01/07 05:24:40;;;;;;;4.97;2.40;;;;;;;11.85;71.29;100783.47;4994209;28;20057;-67
2023/01/07 05:27:07;;;;;;;4.43;2.50;;;;;;;11.97;72.32;100786.41;4995413;28;20050;-68
2023/01/07 05:29:36;;;;;;;7.78;2.70;;;;;;;12.51;71.79;100773.97;4994796;28;20048;-67
2023/01/07 05:32:04;;;;;;;9.00;2.67;;;;;;;12.90;70.62;100770.22;4975140;28;20135;-67
2023/01/07 05:34:31;;;;;;;4.53;2.17;;;;;;;12.85;68.51;100767.63;4991179;28;20051;-66
2023/01/07 05:36:59;;;;;;;5.65;2.55;;;;;;;12.70;70.08;100763.41;4991041;28;20070;-58
2023/01/07 05:39:26;;;;;;;10.38;2.58;;;;;;;12.79;70.46;100761.44;5010810;28;20054;-56
2023/01/07 05:41:53;;;;;;;6.57;2.47;;;;;;;12.31;69.45;100769.06;4978227;28;20050;-58
2023/01/07 05:44:23;;;;;;;4.93;2.35;;;;;;;12.72;71.43;100763.88;4994280;28;20065;-56
2023/01/07 05:46:51;;;;;;;4.75;2.33;;;;;;;12.61;70.35;100756.22;4962534;28;20050;-52
2023/01/07 05:49:18;;;;;;;5.60;2.63;;;;;;;12.36;70.20;100755.13;5010906;28;20073;-58
2023/01/07 05:51:45;;;;;;;4.70;2.70;;;;;;;12.28;71.51;100765.03;4995910;28;20486;-51
2023/01/07 05:54:12;;;;;;;5.60;2.58;;;;;;;12.40;70.89;100758.84;4995882;28;20066;-59
2023/01/07 05:56:40;;;;;;;4.13;2.30;;;;;;;12.03;71.94;100756.72;4995655;28;20050;-53
2023/01/07 05:59:08;;;;;;;7.05;3.00;;;;;;;12.11;72.50;100759.47;4995036;28;20054;-66
2023/01/07 06:01:35;;;;;;;7.22;2.90;;;;;;;12.02;70.73;100763.34;4998349;28;20051;-66
2023/01/07 06:04:02;;;;;;;6.88;2.97;;;;;;;12.09;74.33;100760.94;4981529;28;20058;-66
2023/01/07 06:06:30;;;;;;;4.85;2.40;;;;;;;12.03;71.29;100763.03;5013090;28;20065;-66
2023/01/07 06:08:57;;;;;;;6.93;2.30;;;;;;;12.36;72.56;100760.66;5012136;28;20054;-66
2023/01/07 06:11:24;;;;;;;7.40;3.00;;;;;;;12.15;70.30;100760.44;4996588;28;20053;-66
2023/01/07 06:13:52;;;;;;;5.38;2.72;;;;;;;11.64;72.47;100754.81;4996166;28;20054;-66
2023/01/07 06:16:19;;;;;;;5.82;3.00;;;;;;;12.00;72.89;100771.13;4996031;28;20054;-66
2023/01/07 06:18:46;;;;;;;5.72;2.58;;;;;;;12.22;73.01;100768.28;4978860;28;20058;-66
2023/01/07 06:21:15;;;;;;;6.47;2.83;;;;;;;12.23;71.71;100767.13;4995211;28;20149;-57
2023/01/07 06:23:42;;;;;;;7.32;3.40;;;;;;;12.66;72.05;100765.19;4995721;28;20058;-58
2023/01/07 06:26:09;;;;;;;9.30;3.30;;;;;;;12.52;71.35;100761.75;5001225;28;20419;-55
2023/01/07 06:28:36;;;;;;;6.85;2.80;;;;;;;12.15;70.83;100756.88;4960529;29;20062;-58
2023/01/07 06:31:04;;;;;;;4.43;2.80;;;;;;;11.89;71.90;100753.28;4960022;28;20039;-53
2023/01/07 06:33:31;;;;;;;6.55;2.83;;;;;;;11.99;73.59;100748.25;4960589;28;20055;-57
2023/01/07 06:35:59;;;;;;;7.20;2.90;;;;;;;11.40;73.11;100753.53;4974661;28;20059;-59
2023/01/07 06:38:27;;;;;;;7.28;3.17;;;;;;;12.07;74.64;100754.91;4960290;29;20456;-59
2023/01/07 06:40:54;;;;;;;5.88;3.13;;;;;;;12.65;73.19;100755.28;4959674;28;20055;-59
2023/01/07 06:43:21;;;;;;;6.50;3.03;;;;;;;12.60;71.58;100755.44;4960316;29;20066;-56
2023/01/07 06:45:49;;;;;;;6.85;3.20;;;;;;;12.55;70.90;100747.31;4959888;28;20051;-57
2023/01/07 06:48:16;;;;;;;6.50;2.75;;;;;;;12.28;69.22;100745.69;4975024;28;20062;-57
2023/01/07 06:50:44;;;;;;;5.43;3.05;;;;;;;12.32;71.83;100743.91;4959389;28;20046;-57
2023/01/07 06:53:11;;;;;;;5.55;2.72;;;;;;;12.21;70.71;100742.59;4960034;28;20062;-59
2023/01/07 06:55:39;;;;;;;6.88;3.25;;;;;;;11.76;72.48;100745.91;4989975;28;20047;-55
2023/01/07 06:58:06;;;;;;;8.43;3.13;;;;;;;11.63;71.79;100733.03;4959982;28;20074;-57
2023/01/07 07:00:33;;;;;;;5.72;2.60;;;;;;;12.07;72.24;100724.53;4961037;28;20692;-59
2023/01/07 07:03:01;;;;;;;5.97;3.10;;;;;;;11.97;71.81;100725.69;4977669;28;20061;-58
2023/01/07 07:05:28;;;;;;;6.18;3.13;;;;;;;12.13;72.88;100713.00;5009525;28;20069;-58
2023/01/07 07:07:55;;;;;;;7.85;3.28;;;;;;;12.28;73.44;100720.84;4979273;28;20384;-58
2023/01/07 07:10:23;;;;;;;7.35;3.08;;;;;;;12.58;71.27;100707.16;4978090;28;20050;-67
2023/01/07 07:12:51;;;;;;;5.82;3.08;;;;;;;12.24;69.63;100719.03;4959843;28;20051;-67
2023/01/07 07:15:18;;;;;;;6.57;2.60;;;;;;;12.18;70.69;100720.34;4974869;28;20076;-67
2023/01/07 07:17:46;;;;;;;6.55;2.92;;;;;;;12.29;72.37;100714.16;4979135;28;20051;-68
2023/01/07 07:20:13;;;;;;;7.68;2.90;;;;;;;12.41;72.51;100711.56;4978702;28;20046;-68
2023/01/07 07:22:47;;;;;;;7.95;3.83;;;;;;;12.20;71.13;100709.78;4974003;28;20435;-57
2023/01/07 07:25:14;;;;;;;6.38;3.13;;;;;;;12.24;71.39;100711.56;4967629;28;20062;-54
2023/01/07 07:27:45;;;;;;;6.07;2.67;;;;;;;12.04;72.11;100706.69;4996169;28;20055;-65
2023/01/07 07:30:16;;;;;;;6.43;2.60;;;;;;;12.15;72.71;100707.19;4997911;28;20053;-68
2023/01/07 07:32:43;;;;;;;6.57;2.70;;;;;;;11.77;71.55;100700.66;4998080;28;20065;-66
2023/01/07 07:35:11;;;;;;;5.70;2.83;;;;;;;11.82;72.41;100700.50;4998074;28;20058;-66
2023/01/07 07:37:38;;;;;;;6.63;2.58;;;;;;;12.01;72.16;100696.28;4996939;28;20058;-66
2023/01/07 07:40:07;;;;;;;6.53;3.10;;;;;;;11.57;71.88;100692.91;4997889;28;20505;-66
2023/01/07 07:42:36;;;;;;;13.07;7.17;;;;;;;11.45;69.95;100701.00;4981862;28;20050;-67
2023/01/07 07:45:24;;;;;;;9.88;5.70;;;;;;;11.84;72.23;100690.72;4979630;28;20286;-67
2023/01/07 07:47:51;;;;;;;7.68;4.00;;;;;;;11.97;72.53;100680.69;4993951;28;20054;-57
2023/01/07 07:50:19;;;;;;;6.20;2.97;;;;;;;12.35;70.97;100684.44;4977340;28;20054;-58
2023/01/07 07:52:46;;;;;;;6.53;2.70;;;;;;;11.61;71.68;100689.19;4980140;28;20069;-57
2023/01/07 07:55:13;;;;;;;6.35;3.08;;;;;;;11.23;72.12;100682.56;4997293;28;20058;-55
2023/01/07 07:57:53;;;;;;;6.63;3.03;;;;;;;11.17;75.18;100701.22;5012726;28;20058;-58
2023/01/07 08:00:21;;;;;;;6.20;3.00;;;;;;;11.71;72.52;100696.41;4992045;28;20109;-57
2023/01/07 08:02:49;;;;;;;6.35;3.20;;;;;;;11.82;71.62;100692.22;4996433;28;20050;-69
2023/01/07 08:05:17;;;;;;;5.78;2.80;;;;;;;12.09;71.33;100683.63;4997207;28;20371;-67
2023/01/07 08:07:44;;;;;;;7.65;3.30;;;;;;;12.31;70.84;100675.97;4981793;28;20047;-69
2023/01/07 08:10:11;;;;;;;6.35;3.05;;;;;;;12.49;70.11;100668.50;4977372;28;20050;-66
2023/01/07 08:12:39;;;;;;;7.07;3.10;;;;;;;12.12;70.08;100663.63;4981985;28;20066;-66
2023/01/07 08:15:07;;;;;;;6.00;3.17;;;;;;;11.71;70.08;100660.53;4977801;28;20050;-68
2023/01/07 08:17:35;;;;;;;6.50;3.20;;;;;;;11.47;70.61;100673.91;4996847;28;20065;-66
2023/01/07 08:20:03;;;;;;;8.07;3.10;;;;;;;11.59;70.86;100677.69;4997150;28;20138;-66
2023/01/07 08:22:32;;;;;;;5.97;3.22;;;;;;;11.58;71.81;100677.97;4995960;28;20046;-66
2023/01/07 08:24:59;;;;;;;5.88;3.08;;;;;;;11.80;69.93;100672.41;4988063;28;20065;-66
2023/01/07 08:27:27;;;;;;;5.70;3.00;;;;;;;11.64;70.40;100673.94;4999070;28;20054;-70
2023/01/07 08:29:55;;;;;;;5.72;2.92;;;;;;;11.50;69.15;100670.50;4977826;28;20051;-67
2023/01/07 08:32:22;;;;;;;6.15;3.05;;;;;;;11.55;70.99;100660.16;4991802;28;20069;-68
2023/01/07 08:34:50;;;;;;;5.57;3.13;;;;;;;11.54;71.31;100661.25;4977987;28;20402;-67
2023/01/07 08:37:17;;;;;;;11.85;3.30;;;;;;;11.60;70.08;100643.44;4967614;28;20054;-66
2023/01/07 08:39:45;;;;;;;9.30;3.38;;;;;;;11.09;70.98;100641.34;4977912;28;20065;-68
2023/01/07 08:42:12;;;;;;;5.78;3.00;;;;;;;11.13;73.27;100647.03;4982807;28;20054;-68
2023/01/07 08:44:39;;;;;;;5.75;2.92;;;;;;;10.97;71.89;100635.63;4993171;28;20051;-68
2023/01/07 08:47:06;;;;;;;5.47;2.95;;;;;;;11.27;71.01;100629.25;4993298;28;20413;-67
2023/01/07 08:49:34;;;;;;;9.27;3.10;;;;;;;10.95;69.77;100628.78;4983783;28;20051;-68
2023/01/07 08:52:01;;;;;;;6.82;3.05;;;;;;;11.69;71.60;100621.41;4992369;28;20537;-66
2023/01/07 08:54:29;;;;;;;4.75;2.80;;;;;;;11.57;68.22;100615.69;4984893;28;20055;-66
2023/01/07 08:56:56;;;;;;;7.95;3.47;;;;;;;10.95;69.51;100610.31;4966869;28;20047;-67
2023/01/07 08:59:24;;;;;;;6.88;2.90;;;;;;;10.83;71.51;100607.34;4979163;28;20047;-67
2023/01/07 09:01:51;;;;;;;8.18;3.42;;;;;;;10.97;72.81;100607.25;4971849;28;20541;-67
2023/01/07 09:04:19;;;;;;;5.55;2.90;;;;;;;11.06;71.11;100600.66;4984175;28;20061;-68
2023/01/07 09:06:46;;;;;;;5.38;3.28;;;;;;;11.09;70.16;100599.19;4998398;28;20053;-68
2023/01/07 09:09:15;;;;;;;6.93;2.97;;;;;;;11.15;70.87;100612.50;4975050;28;20054;-67
2023/01/07 09:11:42;;;;;;;5.90;3.30;;;;;;;11.10;69.79;100598.88;4999175;28;20549;-69
2023/01/07 09:14:10;;;;;;;6.70;4.22;;;;;;;11.33;68.89;100583.03;4998448;28;20049;-68
2023/01/07 09:16:37;;;;;;;7.78;3.90;;;;;;;11.28;69.22;100577.66;4991604;28;20054;-68
2023/01/07 09:19:04;;;;;;;6.38;3.40;;;;;;;11.32;69.24;100564.84;4989415;28;20050;-68
2023/01/07 09:21:32;;;;;;;10.00;3.38;;;;;;;11.55;68.59;100562.78;4985021;28;20054;-68
2023/01/07 09:23:59;;;;;;;8.52;3.22;;;;;;;11.96;67.90;100560.38;4976741;28;20043;-69
2023/01/07 09:26:27;;;;;;;9.35;3.35;;;;;;;11.74;67.28;100553.09;4984607;28;20054;-67
2023/01/07 09:28:54;;;;;;;8.75;3.35;;;;;;;11.82;68.90;100551.47;4992293;28;20055;-69
2023/01/07 09:31:22;;;;;;;6.57;3.33;;;;;;;12.39;66.75;100544.53;4986089;28;20042;-70
2023/01/07 09:33:50;;;;;;;7.88;3.33;;;;;;;12.02;66.47;100536.97;4992026;28;20058;-68
2023/01/07 09:36:17;;;;;;;7.45;3.55;;;;;;;11.39;67.97;100543.13;4992311;28;20047;-68
2023/01/07 09:38:45;;;;;;;5.85;3.10;;;;;;;11.51;68.68;100535.03;4959468;28;20055;-69
2023/01/07 09:41:27;;;;;;;5.85;3.40;;;;;;;11.59;68.57;100531.47;4981677;28;20046;-69
2023/01/07 09:43:58;;;;;;;7.00;3.38;;;;;;;11.51;68.86;100523.16;4982438;28;20050;-68
2023/01/07 09:46:31;;;;;;;6.88;3.53;;;;;;;11.78;67.71;100523.72;4952883;28;20150;-69
2023/01/07 09:49:01;;;;;;;5.25;2.95;;;;;;;12.01;66.87;100518.81;4988788;28;20465;-69
2023/01/07 09:51:34;;;;;;;7.22;3.40;;;;;;;11.72;68.02;100521.41;4991432;28;20051;-69
2023/01/07 09:54:03;;;;;;;8.27;4.00;;;;;;;11.63;68.06;100512.34;4975746;28;20061;-68
2023/01/07 09:56:35;;;;;;;5.38;3.03;;;;;;;12.43;67.76;100515.09;4986693;28;20070;-68
2023/01/07 09:59:04;;;;;;;8.95;5.97;;;;;;;12.34;65.61;100501.31;4974918;28;20070;-67
2023/01/07 10:01:54;;;;;;;14.88;9.57;;;;;;;12.05;66.18;100505.94;5006073;28;20062;-68
2023/01/07 10:04:36;;;;;;;8.10;4.00;;;;;;;12.14;67.25;100512.28;4959895;28;20058;-69
2023/01/07 10:07:16;;;;;;;6.53;3.90;;;;;;;12.22;65.35;100503.16;4989431;28;20348;-72
2023/01/07 10:09:56;;;;;;;7.53;3.63;;;;;;;12.35;66.46;100510.41;4986063;28;20394;-67
2023/01/07 10:12:31;;;;;;;8.00;3.53;;;;;;;12.53;64.41;100509.22;4983799;28;20057;-69
2023/01/07 10:15:11;;;;;;;5.10;3.10;;;;;;;12.18;65.26;100511.31;4992306;28;20054;-67
2023/01/07 10:17:55;;;;;;;5.00;2.70;;;;;;;12.59;65.82;100504.34;5006915;28;20058;-67
2023/01/07 10:20:50;;;;;;;5.40;2.80;;;;;;;13.00;65.13;100498.91;4988089;28;20047;-68
2023/01/07 10:23:34;;;;;;;6.20;2.95;;;;;;;12.58;63.68;100495.22;4968754;28;20038;-67
2023/01/07 10:26:02;;;;;;;5.28;3.08;;;;;;;12.78;64.80;100494.47;4974354;28;20066;-67
2023/01/07 10:28:58;;;;;;;8.07;3.00;;;;;;;12.94;64.19;100494.69;4991198;28;20055;-67
2023/01/07 10:31:26;;;;;;;6.25;2.90;;;;;;;13.22;63.06;100488.38;4978776;28;20061;-69
2023/01/07 10:33:56;;;;;;;5.40;2.75;;;;;;;12.91;63.05;100478.78;4993535;28;20410;-67
2023/01/07 10:36:37;;;;;;;6.22;3.28;;;;;;;13.11;62.01;100475.28;4965716;28;20055;-68
2023/01/07 10:39:16;;;;;;;5.65;2.97;;;;;;;12.58;62.36;100475.88;4987616;28;20053;-67
2023/01/07 10:42:08;;;;;;;4.60;2.90;;;;;;;12.31;64.55;100468.03;4971623;28;20054;-66
2023/01/07 10:44:35;;;;;;;8.48;4.38;;;;;;;12.50;63.05;100460.13;4982023;28;20058;-66
2023/01/07 10:47:15;;;;;;;6.18;2.97;;;;;;;12.52;63.57;100457.06;4979879;28;20047;-68
2023/01/07 10:49:54;;;;;;;6.60;3.17;;;;;;;12.48;66.17;100462.44;4958228;28;20073;-69
2023/01/07 10:52:40;;;;;;;6.23;3.13;;;;;;;12.77;63.58;100454.16;4973679;28;20307;-69
2023/01/07 10:55:32;;;;;;;7.95;3.33;;;;;;;12.90;63.21;100438.47;4992981;28;20131;-67
2023/01/07 10:58:01;;;;;;;9.73;2.70;;;;;;;12.81;63.20;100440.47;4977245;28;20060;-68
2023/01/07 11:00:28;;;;;;;5.90;2.85;;;;;;;12.83;64.34;100436.22;4959239;28;20549;-67
2023/01/07 11:02:57;;;;;;;6.22;3.10;;;;;;;12.45;63.58;100427.19;4978402;28;20043;-68
2023/01/07 11:05:27;;;;;;;8.35;3.13;;;;;;;12.74;64.82;100412.56;4962997;28;20058;-68
2023/01/07 11:07:55;;;;;;;;;;;;;;;12.74;63.58;100410.63;4967263;28;20051;-68
2023/01/07 11:10:29;;;;;;;6.47;2.88;;;;;;;13.11;63.07;100406.94;4992094;28;19929;-68
2023/01/07 11:13:00;;;;;;;5.65;2.80;;;;;;;12.78;63.14;100396.94;4977490;28;20051;-66
2023/01/07 11:15:31;;;;;;;9.60;5.75;;;;;;;12.56;64.43;100400.81;4948475;28;20069;-68
2023/01/07 11:18:01;;;;;;;8.07;3.63;;;;;;;12.97;62.91;100375.97;4966053;28;20059;-68
2023/01/07 11:20:43;;;;;;;15.35;9.40;;;;;;;13.18;62.76;100379.56;4981616;28;20059;-70
2023/01/07 11:23:26;;;;;;;7.80;3.42;;;;;;;13.26;62.16;100383.41;4973067;28;20285;-67
2023/01/07 11:25:54;;;;;;;7.03;3.08;;;;;;;13.39;60.24;100373.97;4984135;28;20042;-68
2023/01/07 11:28:25;;;;;;;5.13;2.53;;;;;;;13.09;61.39;100365.00;4965691;28;20406;-68
2023/01/07 11:30:58;;;;;;;6.10;2.75;;;;;;;13.35;61.09;100371.09;4993993;28;20054;-69
2023/01/07 11:33:36;;;;;;;5.80;2.83;;;;;;;13.67;60.21;100357.59;4980919;28;20082;-69
2023/01/07 11:36:42;;;;;;;6.55;3.13;;;;;;;13.50;59.99;100350.28;4988438;28;20046;-68
2023/01/07 11:39:17;;;;;;;5.57;2.33;;;;;;;13.58;59.37;100344.66;4944291;28;20062;-68
2023/01/07 11:41:57;;;;;;;8.48;2.58;;;;;;;13.53;59.47;100346.81;4988961;28;20050;-68
2023/01/07 11:44:25;;;;;;;6.88;2.70;;;;;;;13.55;61.82;100352.84;4978579;28;20065;-67
2023/01/07 11:46:53;;;;;;;6.53;2.50;;;;;;;13.78;60.81;100356.00;4981133;28;20058;-67